createdAt,value
2022-12-08T00:02:10.557Z,7.03
2022-12-08T00:05:32.699Z,10.63
2022-12-08T00:08:54.595Z,6.32
2022-12-08T00:12:01.060Z,15.75
2022-12-08T00:15:04.609Z,4.75
2022-12-08T00:18:08.183Z,9.00
2022-12-08T00:21:11.396Z,7.22
2022-12-08T00:24:14.947Z,5.65
2022-12-08T00:27:18.791Z,7.90
2022-12-08T00:30:21.980Z,10.93
2022-12-08T00:33:25.453Z,3.60
2022-12-08T00:36:31.472Z,7.38
2022-12-08T00:39:34.820Z,6.22
2022-12-08T00:42:38.148Z,5.28
2022-12-08T00:45:41.491Z,6.88
2022-12-08T00:48:44.767Z,9.18
2022-12-08T00:51:48.069Z,7.03
2022-12-08T00:54:51.352Z,7.20
2022-12-08T00:57:54.616Z,4.05
2022-12-08T01:00:57.857Z,4.90
2022-12-08T01:04:18.607Z,11.65
2022-12-08T01:07:24.788Z,5.82
2022-12-08T01:10:28.605Z,5.82
2022-12-08T01:13:31.814Z,12.00
2022-12-08T01:16:36.761Z,8.88
2022-12-08T01:19:40.031Z,9.98
2022-12-08T01:22:43.312Z,3.33
2022-12-08T01:25:46.531Z,8.25
2022-12-08T01:28:49.945Z,7.50
2022-12-08T01:31:53.222Z,7.80
2022-12-08T01:34:56.397Z,11.60
2022-12-08T01:37:59.660Z,18.13
2022-12-08T01:41:03.008Z,8.20
2022-12-08T01:44:12.632Z,3.90
2022-12-08T01:47:16.128Z,7.68
2022-12-08T01:50:24.285Z,2.60
2022-12-08T01:53:33.590Z,10.40
2022-12-08T01:56:58.888Z,3.70
2022-12-08T02:00:09.592Z,10.52
2022-12-08T02:03:26.877Z,6.20
2022-12-08T02:06:34.608Z,10.13
2022-12-08T02:09:39.641Z,10.65
2022-12-08T02:12:44.669Z,4.07
2022-12-08T02:15:56.919Z,6.70
2022-12-08T02:19:36.645Z,11.60
2022-12-08T02:23:26.110Z,8.65
2022-12-08T02:26:53.665Z,11.15
2022-12-08T02:30:24.365Z,7.78
2022-12-08T02:33:27.720Z,4.20
2022-12-08T02:37:27.426Z,8.35
2022-12-08T02:40:40.636Z,11.07
2022-12-08T02:43:48.268Z,10.10
2022-12-08T02:47:09.902Z,16.83
2022-12-08T02:50:13.885Z,4.78
2022-12-08T02:53:17.109Z,4.75
2022-12-08T02:56:22.980Z,9.85
2022-12-08T02:59:47.129Z,9.85
2022-12-08T03:03:05.427Z,9.23
2022-12-08T03:06:33.265Z,14.10
2022-12-08T03:10:02.288Z,11.65
2022-12-08T03:13:12.144Z,10.73
2022-12-08T03:16:20.789Z,5.28
2022-12-08T03:19:29.747Z,2.60
2022-12-08T03:22:37.225Z,4.20
2022-12-08T03:25:47.222Z,5.95
2022-12-08T03:28:50.603Z,3.08
2022-12-08T03:32:02.090Z,7.30
2022-12-08T03:35:15.292Z,3.15
2022-12-08T03:38:18.841Z,2.13
2022-12-08T03:44:40.381Z,4.25
2022-12-08T03:47:43.670Z,8.68
2022-12-08T03:50:46.850Z,4.55
2022-12-08T03:53:50.472Z,6.68
2022-12-08T03:56:53.845Z,4.20
2022-12-08T03:59:57.169Z,9.15
2022-12-08T04:03:00.581Z,8.52
2022-12-08T04:06:04.431Z,5.18
2022-12-08T04:09:07.724Z,8.57
2022-12-08T04:12:11.184Z,6.82
2022-12-08T04:15:14.475Z,6.25
2022-12-08T04:18:17.747Z,16.27
2022-12-08T04:21:21.944Z,7.35
2022-12-08T04:24:25.219Z,19.80
2022-12-08T04:27:28.557Z,12.35
2022-12-08T04:30:32.090Z,5.88
2022-12-08T04:33:39.315Z,4.60
2022-12-08T04:36:42.637Z,3.20
2022-12-08T04:39:45.793Z,4.63
2022-12-08T04:42:49.093Z,6.88
2022-12-08T04:45:55.259Z,13.98
2022-12-08T04:48:58.761Z,9.07
2022-12-08T04:52:02.045Z,12.43
2022-12-08T04:55:05.832Z,8.15
2022-12-08T04:58:09.049Z,12.13
2022-12-08T05:01:13.801Z,6.78
2022-12-08T05:04:17.950Z,6.82
2022-12-08T05:07:21.193Z,15.75
2022-12-08T05:10:24.549Z,3.58
2022-12-08T05:13:27.757Z,13.70
2022-12-08T05:16:31.100Z,8.07
2022-12-08T05:19:35.258Z,5.55
2022-12-08T05:22:40.334Z,3.97
2022-12-08T05:25:43.592Z,3.60
2022-12-08T05:28:47.101Z,16.85
2022-12-08T05:31:50.414Z,12.65
2022-12-08T05:34:53.751Z,8.77
2022-12-08T05:37:56.978Z,6.38
2022-12-08T05:41:00.532Z,15.13
2022-12-08T05:44:03.801Z,14.20
2022-12-08T05:47:07.056Z,3.40
2022-12-08T05:50:10.474Z,9.05
2022-12-08T05:53:13.667Z,13.95
2022-12-08T05:56:17.162Z,8.75
2022-12-08T05:59:20.545Z,15.73
2022-12-08T06:02:23.850Z,8.73
2022-12-08T06:05:27.630Z,7.93
2022-12-08T06:08:34.861Z,10.73
2022-12-08T06:11:38.107Z,2.75
2022-12-08T06:14:41.562Z,10.45
2022-12-08T06:17:45.047Z,3.60
2022-12-08T06:20:49.184Z,10.80
2022-12-08T06:23:54.500Z,7.40
2022-12-08T06:26:57.830Z,7.45
2022-12-08T06:30:01.531Z,7.03
2022-12-08T06:33:04.909Z,16.60
2022-12-08T06:36:08.634Z,12.85
2022-12-08T06:39:11.922Z,13.63
2022-12-08T06:42:33.665Z,14.05
2022-12-08T06:45:37.157Z,18.52
2022-12-08T06:48:40.487Z,4.50
2022-12-08T06:51:43.748Z,12.15
2022-12-08T06:54:46.945Z,10.20
2022-12-08T06:57:53.394Z,16.33
2022-12-08T07:00:57.230Z,8.07
2022-12-08T07:04:00.481Z,10.35
2022-12-08T07:07:03.619Z,19.08
2022-12-08T07:10:07.771Z,7.38
2022-12-08T07:13:11.163Z,21.25
2022-12-08T07:16:14.479Z,13.18
2022-12-08T07:19:18.061Z,14.52
2022-12-08T07:22:21.445Z,10.90
2022-12-08T07:25:24.692Z,20.33
2022-12-08T07:28:27.915Z,15.73
2022-12-08T07:31:31.119Z,17.88
2022-12-08T07:34:34.314Z,13.35
2022-12-08T07:37:38.286Z,16.42
2022-12-08T07:40:41.559Z,19.02
2022-12-08T07:43:45.492Z,20.52
2022-12-08T07:50:06.191Z,19.25
2022-12-08T07:53:09.926Z,6.28
2022-12-08T07:56:14.325Z,15.25
2022-12-08T07:59:17.659Z,21.52
2022-12-08T08:02:24.969Z,18.08
2022-12-08T08:05:29.166Z,18.25
2022-12-08T08:08:32.918Z,18.35
2022-12-08T08:11:36.254Z,17.85
2022-12-08T08:14:39.517Z,10.85
2022-12-08T08:17:42.762Z,17.23
2022-12-08T08:20:45.986Z,14.82
2022-12-08T08:23:49.426Z,17.20
2022-12-08T08:26:54.251Z,12.25
2022-12-08T08:29:57.434Z,13.35
2022-12-08T08:33:01.479Z,20.42
2022-12-08T08:36:08.949Z,11.20
2022-12-08T08:39:13.207Z,20.73
2022-12-08T08:42:16.439Z,23.13
2022-12-08T08:45:19.715Z,15.32
2022-12-08T08:48:22.974Z,21.13
2022-12-08T08:51:28.155Z,22.25
2022-12-08T08:54:34.272Z,15.95
2022-12-08T08:57:37.666Z,24.67
2022-12-08T09:00:40.972Z,11.20
2022-12-08T09:03:45.173Z,14.15
2022-12-08T09:06:52.269Z,24.60
2022-12-08T09:10:01.349Z,22.70
2022-12-08T09:13:09.608Z,18.23
2022-12-08T09:16:13.319Z,20.80
2022-12-08T09:19:17.201Z,21.98
2022-12-08T09:22:24.729Z,27.30
2022-12-08T09:25:30.979Z,21.35
2022-12-08T09:28:34.380Z,16.92
2022-12-08T09:31:38.220Z,11.57
2022-12-08T09:34:48.969Z,26.38
2022-12-08T09:37:55.186Z,28.83
2022-12-08T09:40:59.339Z,33.80
2022-12-08T09:44:47.055Z,24.65
2022-12-08T09:48:31.384Z,19.45
2022-12-08T09:51:39.300Z,9.43
2022-12-08T09:54:42.662Z,19.48
2022-12-08T09:57:46.074Z,12.65
2022-12-08T10:00:49.405Z,15.70
2022-12-08T10:03:55.450Z,16.92
2022-12-08T10:07:05.823Z,25.13
2022-12-08T10:28:12.859Z,14.90
2022-12-08T10:31:18.405Z,18.67
2022-12-08T10:34:25.636Z,21.02
2022-12-08T10:37:28.925Z,18.77
2022-12-08T10:40:42.320Z,16.75
2022-12-08T10:44:00.055Z,18.35
2022-12-08T10:47:13.328Z,20.40
2022-12-08T10:50:21.392Z,17.48
2022-12-08T10:53:27.261Z,20.83
2022-12-08T10:56:32.219Z,17.90
2022-12-08T10:59:35.617Z,17.45
2022-12-08T11:03:01.496Z,20.63
2022-12-08T11:06:24.802Z,15.20
2022-12-08T11:09:50.198Z,13.68
2022-12-08T11:12:53.451Z,17.95
2022-12-08T11:16:00.302Z,12.80
2022-12-08T11:19:08.129Z,12.45
2022-12-08T11:22:34.834Z,17.08
2022-12-08T11:25:38.259Z,18.33
2022-12-08T11:28:43.309Z,15.13
2022-12-08T11:32:04.373Z,16.13
2022-12-08T11:35:19.815Z,15.52
2022-12-08T11:38:26.954Z,25.20
2022-12-08T11:41:43.765Z,31.88
2022-12-08T11:44:57.599Z,12.98
2022-12-08T11:48:12.507Z,19.00
2022-12-08T11:51:51.860Z,18.55
2022-12-08T11:55:18.040Z,22.92
2022-12-08T11:58:51.269Z,14.70
2022-12-08T12:01:54.823Z,11.25
2022-12-08T12:05:33.672Z,15.18
2022-12-08T12:09:17.598Z,14.55
2022-12-08T12:12:31.654Z,15.93
2022-12-08T12:16:14.904Z,17.10
2022-12-08T12:19:21.086Z,15.20
2022-12-08T12:22:51.145Z,20.67
2022-12-08T12:26:01.560Z,12.82
2022-12-08T12:29:20.461Z,11.27
2022-12-08T12:32:24.976Z,7.75
2022-12-08T12:35:39.252Z,9.50
2022-12-08T12:39:06.923Z,18.88
2022-12-08T12:42:46.530Z,17.08
2022-12-08T12:45:49.875Z,11.57
2022-12-08T12:48:53.972Z,8.55
2022-12-08T12:51:57.240Z,11.65
2022-12-08T12:55:00.392Z,8.88
2022-12-08T12:58:04.921Z,12.57
2022-12-08T13:01:11.309Z,9.35
2022-12-08T13:04:14.775Z,9.73
2022-12-08T13:07:33.080Z,11.43
2022-12-08T13:10:40.620Z,6.38
2022-12-08T13:14:04.648Z,5.50
2022-12-08T13:17:14.196Z,6.05
2022-12-08T13:20:28.074Z,8.85
2022-12-08T13:23:39.051Z,7.93
2022-12-08T13:26:46.747Z,10.70
2022-12-08T13:30:31.812Z,16.13
2022-12-08T13:33:42.728Z,13.43
2022-12-08T13:36:59.056Z,12.80
2022-12-08T13:40:20.953Z,10.48
2022-12-08T13:43:48.270Z,4.90
2022-12-08T13:57:40.571Z,13.23
2022-12-08T14:00:43.928Z,9.60
2022-12-08T14:07:23.528Z,12.07
2022-12-08T14:10:28.144Z,13.80
2022-12-08T14:13:32.609Z,14.73
2022-12-08T14:16:42.365Z,12.05
2022-12-08T14:19:54.124Z,5.65
2022-12-08T14:23:00.451Z,7.05
2022-12-08T14:26:06.022Z,7.35
2022-12-08T14:29:10.577Z,11.25
2022-12-08T14:32:31.006Z,12.30
2022-12-08T14:35:37.471Z,7.15
2022-12-08T14:38:40.919Z,14.23
2022-12-08T14:42:01.923Z,14.68
2022-12-08T14:45:11.038Z,9.27
2022-12-08T14:48:21.409Z,20.63
2022-12-08T14:51:33.752Z,23.58
2022-12-08T14:54:37.120Z,15.75
2022-12-08T14:57:40.424Z,13.27
2022-12-08T15:00:53.627Z,12.98
2022-12-08T15:04:27.776Z,14.20
2022-12-08T15:07:53.242Z,16.73
2022-12-08T15:11:20.242Z,6.38
2022-12-08T15:14:36.544Z,13.65
2022-12-08T15:18:12.758Z,6.25
2022-12-08T15:21:15.983Z,8.57
2022-12-08T15:24:22.813Z,5.78
2022-12-08T15:27:29.056Z,4.07
2022-12-08T15:30:32.637Z,8.80
2022-12-08T15:33:38.207Z,10.98
2022-12-08T15:36:44.149Z,12.90
2022-12-08T15:39:50.125Z,7.75
2022-12-08T15:42:53.948Z,13.55
2022-12-08T15:46:00.095Z,9.50
2022-12-08T15:49:03.885Z,11.75
2022-12-08T15:52:15.541Z,15.23
2022-12-08T15:55:20.514Z,7.85
2022-12-08T16:01:49.418Z,10.18
2022-12-08T16:12:09.875Z,12.13
2022-12-08T16:18:40.723Z,10.40
2022-12-08T16:25:18.391Z,10.40
2022-12-08T16:28:52.928Z,8.27
2022-12-08T16:31:45.883Z,5.93
2022-12-08T16:34:50.332Z,5.50
2022-12-08T16:37:53.613Z,12.70
2022-12-08T16:41:15.188Z,10.27
2022-12-08T16:44:18.522Z,13.07
2022-12-08T16:47:21.741Z,10.80
2022-12-08T16:50:35.667Z,7.15
2022-12-08T16:53:38.885Z,4.60
2022-12-08T16:56:44.724Z,9.52
2022-12-08T16:59:47.901Z,7.57
2022-12-08T17:02:52.007Z,10.05
2022-12-08T17:05:55.266Z,7.63
2022-12-08T17:08:58.440Z,10.65
2022-12-08T17:12:04.002Z,8.70
2022-12-08T17:15:13.892Z,7.00
2022-12-08T17:18:19.460Z,8.35
2022-12-08T17:21:22.730Z,5.75
2022-12-08T17:24:29.644Z,7.38
2022-12-08T17:27:33.144Z,5.70
2022-12-08T17:30:39.199Z,3.35
2022-12-08T17:33:42.898Z,3.13
2022-12-08T17:36:46.101Z,3.72
2022-12-08T17:39:49.352Z,7.57
2022-12-08T17:42:52.591Z,4.85
2022-12-08T17:45:56.826Z,5.70
2022-12-08T17:48:59.972Z,5.32
2022-12-08T17:52:05.397Z,5.15
2022-12-08T17:55:09.069Z,8.63
2022-12-08T17:58:12.336Z,3.60
2022-12-08T18:01:15.650Z,3.90
2022-12-08T18:04:19.074Z,5.78
2022-12-08T18:07:22.408Z,3.38
2022-12-08T18:10:25.661Z,5.32
2022-12-08T18:13:29.020Z,4.95
2022-12-08T18:16:32.279Z,2.55
2022-12-08T18:19:35.562Z,6.40
2022-12-08T18:22:38.858Z,2.67
2022-12-08T18:25:42.127Z,4.90
2022-12-08T18:28:45.551Z,2.72
2022-12-08T18:31:48.982Z,4.32
2022-12-08T18:34:52.241Z,3.35
2022-12-08T18:37:55.980Z,6.18
2022-12-08T18:41:12.476Z,3.40
2022-12-08T18:44:15.818Z,2.67
2022-12-08T18:47:21.294Z,0.45
2022-12-08T18:50:24.699Z,4.68
2022-12-08T18:53:27.878Z,4.13
2022-12-08T18:56:33.472Z,5.32
2022-12-08T18:59:36.620Z,4.00
2022-12-08T19:02:40.593Z,8.32
2022-12-08T19:05:43.943Z,3.03
2022-12-08T19:08:49.022Z,2.83
2022-12-08T19:11:52.400Z,2.67
2022-12-08T19:14:55.677Z,7.65
2022-12-08T19:18:00.436Z,3.58
2022-12-08T19:21:03.708Z,5.63
2022-12-08T19:24:07.604Z,8.88
2022-12-08T19:27:11.003Z,4.40
2022-12-08T19:30:14.990Z,6.18
2022-12-08T19:33:18.257Z,2.88
2022-12-08T19:36:23.187Z,3.55
2022-12-08T19:39:44.693Z,9.80
2022-12-08T19:43:06.093Z,2.72
2022-12-08T19:46:09.699Z,3.55
2022-12-08T19:49:13.114Z,4.50
2022-12-08T19:52:16.711Z,6.75
2022-12-08T19:55:20.116Z,7.38
2022-12-08T19:58:24.614Z,6.70
2022-12-08T20:01:27.908Z,4.18
2022-12-08T20:04:31.404Z,5.50
2022-12-08T20:07:35.270Z,8.30
2022-12-08T20:10:41.686Z,6.72
2022-12-08T20:13:46.268Z,6.70
2022-12-08T20:16:49.883Z,7.22
2022-12-08T20:19:53.656Z,6.97
2022-12-08T20:22:57.251Z,4.55
2022-12-08T20:26:07.529Z,4.32
2022-12-08T20:29:15.375Z,4.95
2022-12-08T20:32:18.852Z,3.13
2022-12-08T20:35:22.304Z,3.58
2022-12-08T20:38:25.577Z,6.78
2022-12-08T20:41:28.837Z,8.45
2022-12-08T20:44:32.126Z,6.28
2022-12-08T20:47:36.548Z,13.20
2022-12-08T20:50:40.003Z,7.07
2022-12-08T20:53:43.386Z,9.15
2022-12-08T20:56:48.492Z,10.32
2022-12-08T20:59:52.306Z,17.67
2022-12-08T21:02:57.064Z,15.75
2022-12-08T21:06:02.530Z,10.35
2022-12-08T21:09:05.871Z,6.30
2022-12-08T21:12:09.379Z,6.15
2022-12-08T21:15:13.222Z,9.68
2022-12-08T21:18:17.670Z,7.30
2022-12-08T21:21:23.257Z,2.45
2022-12-08T21:24:31.991Z,8.13
2022-12-08T21:27:38.685Z,9.50
2022-12-08T21:30:43.828Z,6.00
2022-12-08T21:33:47.054Z,5.68
2022-12-08T21:36:51.144Z,2.80
2022-12-08T21:39:54.690Z,6.28
2022-12-08T21:42:57.992Z,6.43
2022-12-08T21:46:01.415Z,12.35
2022-12-08T21:49:05.097Z,9.55
2022-12-08T21:52:11.646Z,12.00
2022-12-08T21:55:16.396Z,8.93
2022-12-08T21:58:19.770Z,6.00
2022-12-08T22:01:23.191Z,7.82
2022-12-08T22:04:29.649Z,7.97
2022-12-08T22:07:43.858Z,9.43
2022-12-08T22:10:50.534Z,9.82
2022-12-08T22:13:53.882Z,9.32
2022-12-08T22:16:57.176Z,5.82
2022-12-08T22:20:00.612Z,9.25
2022-12-08T22:23:04.151Z,11.10
2022-12-08T22:26:08.730Z,12.02
2022-12-08T22:29:12.196Z,11.65
2022-12-08T22:32:16.144Z,11.20
2022-12-08T22:35:21.879Z,9.27
2022-12-08T22:38:26.080Z,10.55
2022-12-08T22:41:29.444Z,8.40
2022-12-08T22:44:34.467Z,5.78
2022-12-08T22:47:37.859Z,7.35
2022-12-08T22:50:41.852Z,17.33
2022-12-08T22:53:45.628Z,14.88
2022-12-08T22:56:48.837Z,9.43
2022-12-08T22:59:53.622Z,1.88
2022-12-08T23:02:57.090Z,2.17
2022-12-08T23:06:00.733Z,4.45
2022-12-08T23:09:04.293Z,9.18
2022-12-08T23:12:08.239Z,8.18
2022-12-08T23:15:11.624Z,5.20
2022-12-08T23:18:16.650Z,14.85
2022-12-08T23:21:21.023Z,11.05
2022-12-08T23:24:24.560Z,9.13
2022-12-08T23:27:27.931Z,9.45
2022-12-08T23:30:31.608Z,10.75
2022-12-08T23:33:35.107Z,10.32
2022-12-08T23:36:41.840Z,8.15
2022-12-08T23:39:45.145Z,13.25
2022-12-08T23:42:48.959Z,11.93
2022-12-08T23:45:52.267Z,8.65
2022-12-08T23:48:55.588Z,8.70
2022-12-08T23:51:58.943Z,14.30
2022-12-08T23:55:02.145Z,21.85
2022-12-08T23:58:05.625Z,11.27
